Caloundra, Australia
Current Conditions -  °F | °C
As of 2:00 AM on Monday 26 Jan 2015 (Local Time) from YBBN Reporting Station
Broken Clouds Broken Clouds  
Wind Chill: 27°   Ceiling: 8000
Heat Index: 31°   Visibility: 6mi
Dew Point: 26°   Wind: 6mph
Humidity: 94%   Direction: 40°NE
Pressure: 29.68"   Gusts: NA
Location:  26.8°S, 153.13°E
Report Text: YBBN 251600Z 04005KT 9999 FEW007 SCT011 BKN080 27/26 Q1005
Loading
Personal Weather Stations






























Interactive Weather Map New forecast layout! Learn more

10-Day Weather Forecast

Advertisements
Track Severe Weather on mobile